sensor_id;sensor_type;location;lat;lon;timestamp;pressure;altitude;pressure_sealevel;temperature;humidity
29379;BME280;16362;47.202;15.258;2022-09-01T00:02:27;96285.84;;;14.04;100.00
29379;BME280;16362;47.202;15.258;2022-09-01T00:04:54;96289.16;;;14.06;100.00
29379;BME280;16362;47.202;15.258;2022-09-01T00:07:26;96286.28;;;14.07;100.00
29379;BME280;16362;47.202;15.258;2022-09-01T00:09:57;96284.81;;;14.05;100.00
29379;BME280;16362;47.202;15.258;2022-09-01T00:12:24;96282.16;;;14.05;100.00
29379;BME280;16362;47.202;15.258;2022-09-01T00:14:52;96283.59;;;14.07;100.00
29379;BME280;16362;47.202;15.258;2022-09-01T00:17:20;96285.44;;;14.07;100.00
29379;BME280;16362;47.202;15.258;2022-09-01T00:19:47;96283.78;;;14.06;100.00
29379;BME280;16362;47.202;15.258;2022-09-01T00:22:13;96276.38;;;14.08;100.00
29379;BME280;16362;47.202;15.258;2022-09-01T00:24:40;96283.59;;;14.07;100.00
29379;BME280;16362;47.202;15.258;2022-09-01T00:27:07;96283.78;;;14.06;100.00
29379;BME280;16362;47.202;15.258;2022-09-01T00:29:34;96276.38;;;14.08;100.00
29379;BME280;16362;47.202;15.258;2022-09-01T00:32:02;96282.56;;;14.08;100.00
29379;BME280;16362;47.202;15.258;2022-09-01T00:34:30;96272.22;;;14.05;100.00
29379;BME280;16362;47.202;15.258;2022-09-01T00:36:56;96276.38;;;14.08;100.00
29379;BME280;16362;47.202;15.258;2022-09-01T00:39:23;96270.34;;;13.99;100.00
29379;BME280;16362;47.202;15.258;2022-09-01T00:41:50;96272.19;;;13.98;100.00
29379;BME280;16362;47.202;15.258;2022-09-01T00:44:19;96270.91;;;13.94;100.00
29379;BME280;16362;47.202;15.258;2022-09-01T00:46:55;96273.59;;;13.94;100.00
29379;BME280;16362;47.202;15.258;2022-09-01T00:49:26;96263.69;;;13.95;100.00
29379;BME280;16362;47.202;15.258;2022-09-01T00:52:00;96266.19;;;13.96;100.00
29379;BME280;16362;47.202;15.258;2022-09-01T00:54:32;96263.88;;;13.93;100.00
29379;BME280;16362;47.202;15.258;2022-09-01T00:57:01;96268.63;;;13.91;100.00
29379;BME280;16362;47.202;15.258;2022-09-01T00:59:30;96270.66;;;13.89;100.00
29379;BME280;16362;47.202;15.258;2022-09-01T01:01:57;96272.13;;;13.92;100.00
29379;BME280;16362;47.202;15.258;2022-09-01T01:04:24;96274.81;;;13.92;100.00
29379;BME280;16362;47.202;15.258;2022-09-01T01:06:54;96273.34;;;13.89;100.00
29379;BME280;16362;47.202;15.258;2022-09-01T01:09:31;96277.91;;;13.89;100.00
29379;BME280;16362;47.202;15.258;2022-09-01T01:12:02;96275.78;;;13.84;100.00
29379;BME280;16362;47.202;15.258;2022-09-01T01:14:29;96274.50;;;13.80;100.00
29379;BME280;16362;47.202;15.258;2022-09-01T01:16:58;96278.25;;;13.79;100.00
29379;BME280;16362;47.202;15.258;2022-09-01T01:19:39;96274.50;;;13.80;100.00
29379;BME280;16362;47.202;15.258;2022-09-01T01:22:40;96270.75;;;13.74;100.00
29379;BME280;16362;47.202;15.258;2022-09-01T01:25:40;96270.75;;;13.74;100.00
29379;BME280;16362;47.202;15.258;2022-09-01T01:28:21;96275.75;;;13.77;100.00
29379;BME280;16362;47.202;15.258;2022-09-01T01:30:52;96274.09;;;13.76;100.00
29379;BME280;16362;47.202;15.258;2022-09-01T01:33:21;96270.56;;;13.76;100.00
29379;BME280;16362;47.202;15.258;2022-09-01T01:35:51;96273.91;;;13.78;100.00
29379;BME280;16362;47.202;15.258;2022-09-01T01:38:19;96273.84;;;13.71;100.00
29379;BME280;16362;47.202;15.258;2022-09-01T01:40:49;96274.47;;;13.73;100.00
29379;BME280;16362;47.202;15.258;2022-09-01T01:43:17;96279.66;;;13.75;100.00
29379;BME280;16362;47.202;15.258;2022-09-01T01:45:50;96276.13;;;13.74;100.00
29379;BME280;16362;47.202;15.258;2022-09-01T01:48:19;96276.31;;;13.73;100.00
29379;BME280;16362;47.202;15.258;2022-09-01T01:50:51;96280.66;;;13.74;100.00
29379;BME280;16362;47.202;15.258;2022-09-01T01:53:19;96275.31;;;13.74;100.00
29379;BME280;16362;47.202;15.258;2022-09-01T01:55:47;96274.28;;;13.75;100.00
29379;BME280;16362;47.202;15.258;2022-09-01T01:58:18;96268.28;;;13.73;100.00
29379;BME280;16362;47.202;15.258;2022-09-01T02:00:48;96267.47;;;13.72;100.00
29379;BME280;16362;47.202;15.258;2022-09-01T02:03:18;96269.09;;;13.73;100.00
29379;BME280;16362;47.202;15.258;2022-09-01T02:05:48;96259.22;;;13.74;100.00
29379;BME280;16362;47.202;15.258;2022-09-01T02:08:15;96263.72;;;13.73;100.00
29379;BME280;16362;47.202;15.258;2022-09-01T02:10:48;96263.94;;;13.72;100.00
29379;BME280;16362;47.202;15.258;2022-09-01T02:13:18;96264.97;;;13.71;100.00
29379;BME280;16362;47.202;15.258;2022-09-01T02:15:51;96271.50;;;13.61;100.00
29379;BME280;16362;47.202;15.258;2022-09-01T02:18:28;96261.13;;;13.58;100.00
29379;BME280;16362;47.202;15.258;2022-09-01T02:20:56;96261.94;;;13.52;100.00
29379;BME280;16362;47.202;15.258;2022-09-01T02:23:24;96264.09;;;13.42;100.00
29379;BME280;16362;47.202;15.258;2022-09-01T02:25:53;96262.06;;;13.44;100.00
29379;BME280;16362;47.202;15.258;2022-09-01T02:28:42;96266.50;;;13.37;100.00
29379;BME280;16362;47.202;15.258;2022-09-01T02:31:11;96259.31;;;13.37;100.00
29379;BME280;16362;47.202;15.258;2022-09-01T02:33:40;96267.16;;;13.39;100.00
29379;BME280;16362;47.202;15.258;2022-09-01T02:36:13;96279.16;;;13.43;100.00
29379;BME280;16362;47.202;15.258;2022-09-01T02:38:42;96264.94;;;13.42;100.00
29379;BME280;16362;47.202;15.258;2022-09-01T02:41:12;96280.56;;;13.39;100.00
29379;BME280;16362;47.202;15.258;2022-09-01T02:43:41;96270.88;;;13.38;100.00
29379;BME280;16362;47.202;15.258;2022-09-01T02:46:12;96271.41;;;13.33;100.00
29379;BME280;16362;47.202;15.258;2022-09-01T02:48:41;96279.41;;;13.26;100.00
29379;BME280;16362;47.202;15.258;2022-09-01T02:51:12;96268.41;;;13.21;100.00
29379;BME280;16362;47.202;15.258;2022-09-01T02:53:41;96271.47;;;13.18;100.00
29379;BME280;16362;47.202;15.258;2022-09-01T02:56:09;96268.16;;;13.16;100.00
29379;BME280;16362;47.202;15.258;2022-09-01T02:58:45;96268.53;;;13.13;100.00
29379;BME280;16362;47.202;15.258;2022-09-01T03:01:19;96266.44;;;13.08;100.00
29379;BME280;16362;47.202;15.258;2022-09-01T03:03:48;96269.88;;;13.02;100.00
29379;BME280;16362;47.202;15.258;2022-09-01T03:06:16;96273.47;;;12.94;100.00
29379;BME280;16362;47.202;15.258;2022-09-01T03:08:55;96270.72;;;12.88;100.00
29379;BME280;16362;47.202;15.258;2022-09-01T03:11:26;96267.78;;;12.83;100.00
29379;BME280;16362;47.202;15.258;2022-09-01T03:13:54;96270.03;;;12.79;100.00
29379;BME280;16362;47.202;15.258;2022-09-01T03:16:21;96276.78;;;12.75;100.00
29379;BME280;16362;47.202;15.258;2022-09-01T03:18:48;96266.81;;;12.69;100.00
29379;BME280;16362;47.202;15.258;2022-09-01T03:21:16;96271.06;;;12.63;100.00
29379;BME280;16362;47.202;15.258;2022-09-01T03:23:44;96276.16;;;12.58;100.00
29379;BME280;16362;47.202;15.258;2022-09-01T03:26:12;96265.00;;;12.54;100.00
29379;BME280;16362;47.202;15.258;2022-09-01T03:28:39;96270.16;;;12.56;100.00
29379;BME280;16362;47.202;15.258;2022-09-01T03:31:06;96270.72;;;12.51;100.00
29379;BME280;16362;47.202;15.258;2022-09-01T03:33:34;96266.38;;;12.50;100.00
29379;BME280;16362;47.202;15.258;2022-09-01T03:36:03;96269.41;;;12.47;100.00
29379;BME280;16362;47.202;15.258;2022-09-01T03:38:40;96263.44;;;12.45;100.00
29379;BME280;16362;47.202;15.258;2022-09-01T03:41:10;96258.91;;;12.45;100.00
29379;BME280;16362;47.202;15.258;2022-09-01T03:43:39;96263.44;;;12.45;100.00
29379;BME280;16362;47.202;15.258;2022-09-01T03:46:14;96262.59;;;12.44;100.00
29379;BME280;16362;47.202;15.258;2022-09-01T03:49:03;96259.72;;;12.46;100.00
29379;BME280;16362;47.202;15.258;2022-09-01T03:51:33;96262.06;;;12.49;100.00
29379;BME280;16362;47.202;15.258;2022-09-01T03:54:00;96261.00;;;12.50;100.00
29379;BME280;16362;47.202;15.258;2022-09-01T03:56:28;96266.22;;;12.52;100.00
29379;BME280;16362;47.202;15.258;2022-09-01T03:58:57;96257.13;;;12.53;100.00
29379;BME280;16362;47.202;15.258;2022-09-01T04:01:26;96261.66;;;12.52;100.00
29379;BME280;16362;47.202;15.258;2022-09-01T04:03:53;96257.31;;;12.51;100.00
29379;BME280;16362;47.202;15.258;2022-09-01T04:06:20;96262.50;;;12.53;100.00
29379;BME280;16362;47.202;15.258;2022-09-01T04:08:50;96266.22;;;12.52;100.00
29379;BME280;16362;47.202;15.258;2022-09-01T04:11:23;96264.16;;;12.54;100.00
29379;BME280;16362;47.202;15.258;2022-09-01T04:13:50;96263.16;;;12.55;100.00
29379;BME280;16362;47.202;15.258;2022-09-01T04:16:23;96256.97;;;12.54;100.00
29379;BME280;16362;47.202;15.258;2022-09-01T04:19:09;96259.66;;;12.54;100.00
29379;BME280;16362;47.202;15.258;2022-09-01T04:21:47;96263.78;;;12.57;100.00
29379;BME280;16362;47.202;15.258;2022-09-01T04:24:18;96265.44;;;12.58;100.00
29379;BME280;16362;47.202;15.258;2022-09-01T04:26:46;96254.72;;;12.58;100.00
29379;BME280;16362;47.202;15.258;2022-09-01T04:29:18;96252.06;;;12.58;100.00
29379;BME280;16362;47.202;15.258;2022-09-01T04:31:49;96251.44;;;12.56;100.00
29379;BME280;16362;47.202;15.258;2022-09-01T04:34:19;96256.78;;;12.56;100.00
29379;BME280;16362;47.202;15.258;2022-09-01T04:36:45;96250.22;;;12.58;100.00
29379;BME280;16362;47.202;15.258;2022-09-01T04:39:16;96243.63;;;12.61;100.00
29379;BME280;16362;47.202;15.258;2022-09-01T04:41:44;96241.44;;;12.64;100.00
29379;BME280;16362;47.202;15.258;2022-09-01T04:44:17;96236.72;;;12.67;100.00
29379;BME280;16362;47.202;15.258;2022-09-01T04:46:45;96239.41;;;12.67;100.00
29379;BME280;16362;47.202;15.258;2022-09-01T04:49:14;96236.16;;;12.71;100.00
29379;BME280;16362;47.202;15.258;2022-09-01T04:51:48;96237.25;;;12.77;100.00
29379;BME280;16362;47.202;15.258;2022-09-01T04:54:21;96236.88;;;12.80;100.00
29379;BME280;16362;47.202;15.258;2022-09-01T04:56:49;96242.31;;;12.87;100.00
29379;BME280;16362;47.202;15.258;2022-09-01T04:59:20;96249.38;;;12.94;100.00
29379;BME280;16362;47.202;15.258;2022-09-01T05:01:48;96244.47;;;12.98;100.00
29379;BME280;16362;47.202;15.258;2022-09-01T05:04:22;96249.25;;;13.03;100.00
29379;BME280;16362;47.202;15.258;2022-09-01T05:06:51;96244.56;;;13.05;100.00
29379;BME280;16362;47.202;15.258;2022-09-01T05:09:21;96246.44;;;13.11;100.00
29379;BME280;16362;47.202;15.258;2022-09-01T05:11:48;96247.69;;;13.08;100.00
29379;BME280;16362;47.202;15.258;2022-09-01T05:14:15;96244.16;;;13.08;100.00
29379;BME280;16362;47.202;15.258;2022-09-01T05:16:44;96246.97;;;13.00;100.00
29379;BME280;16362;47.202;15.258;2022-09-01T05:19:13;96244.56;;;13.05;100.00
29379;BME280;16362;47.202;15.258;2022-09-01T05:21:44;96242.34;;;13.08;100.00
29379;BME280;16362;47.202;15.258;2022-09-01T05:24:16;96244.44;;;13.13;100.00
29379;BME280;16362;47.202;15.258;2022-09-01T05:26:44;96245.50;;;13.19;100.00
29379;BME280;16362;47.202;15.258;2022-09-01T05:29:14;96232.38;;;13.24;100.00
29379;BME280;16362;47.202;15.258;2022-09-01T05:31:45;96237.78;;;13.30;100.00
29379;BME280;16362;47.202;15.258;2022-09-01T05:34:16;96220.59;;;13.40;100.00
29379;BME280;16362;47.202;15.258;2022-09-01T05:36:48;96228.88;;;13.45;100.00
29379;BME280;16362;47.202;15.258;2022-09-01T05:39:17;96221.97;;;13.57;100.00
29379;BME280;16362;47.202;15.258;2022-09-01T05:41:44;96230.47;;;13.68;100.00
29379;BME280;16362;47.202;15.258;2022-09-01T05:44:11;96230.34;;;13.76;100.00
29379;BME280;16362;47.202;15.258;2022-09-01T05:46:39;96232.66;;;13.79;100.00
29379;BME280;16362;47.202;15.258;2022-09-01T05:49:08;96235.34;;;13.79;100.00
29379;BME280;16362;47.202;15.258;2022-09-01T05:51:41;96226.72;;;13.90;100.00
29379;BME280;16362;47.202;15.258;2022-09-01T05:54:11;96230.88;;;13.93;100.00
29379;BME280;16362;47.202;15.258;2022-09-01T05:56:41;96226.81;;;14.04;100.00
29379;BME280;16362;47.202;15.258;2022-09-01T05:59:11;96223.34;;;14.10;100.00
29379;BME280;16362;47.202;15.258;2022-09-01T06:01:54;96222.16;;;14.19;100.00
29379;BME280;16362;47.202;15.258;2022-09-01T06:04:22;96221.59;;;14.30;100.00
29379;BME280;16362;47.202;15.258;2022-09-01T06:06:51;96219.19;;;14.49;100.00
29379;BME280;16362;47.202;15.258;2022-09-01T06:09:41;96229.44;;;14.74;100.00
29379;BME280;16362;47.202;15.258;2022-09-01T06:12:09;96225.59;;;14.96;100.00
29379;BME280;16362;47.202;15.258;2022-09-01T06:14:45;96228.72;;;15.20;100.00
29379;BME280;16362;47.202;15.258;2022-09-01T06:17:12;96226.06;;;15.47;100.00
29379;BME280;16362;47.202;15.258;2022-09-01T06:19:42;96223.38;;;15.67;100.00
29379;BME280;16362;47.202;15.258;2022-09-01T06:22:10;96237.00;;;15.79;100.00
29379;BME280;16362;47.202;15.258;2022-09-01T06:24:37;96230.25;;;15.83;100.00
29379;BME280;16362;47.202;15.258;2022-09-01T06:27:10;96232.28;;;15.88;100.00
29379;BME280;16362;47.202;15.258;2022-09-01T06:29:37;96238.06;;;15.78;100.00
29379;BME280;16362;47.202;15.258;2022-09-01T06:32:06;96233.94;;;15.75;100.00
29379;BME280;16362;47.202;15.258;2022-09-01T06:34:40;96248.00;;;15.71;100.00
29379;BME280;16362;47.202;15.258;2022-09-01T06:37:11;96241.19;;;15.55;100.00
29379;BME280;16362;47.202;15.258;2022-09-01T06:39:38;96247.59;;;15.47;100.00
29379;BME280;16362;47.202;15.258;2022-09-01T06:42:06;96249.22;;;15.28;100.00
29379;BME280;16362;47.202;15.258;2022-09-01T06:44:34;96242.97;;;15.21;100.00
29379;BME280;16362;47.202;15.258;2022-09-01T06:47:06;96244.22;;;15.11;100.00
29379;BME280;16362;47.202;15.258;2022-09-01T06:49:34;96242.75;;;15.02;100.00
29379;BME280;16362;47.202;15.258;2022-09-01T06:52:02;96238.19;;;15.03;100.00
29379;BME280;16362;47.202;15.258;2022-09-01T06:54:30;96245.47;;;15.09;100.00
29379;BME280;16362;47.202;15.258;2022-09-01T06:57:01;96244.63;;;15.15;100.00
29379;BME280;16362;47.202;15.258;2022-09-01T06:59:49;96248.56;;;15.19;100.00
29379;BME280;16362;47.202;15.258;2022-09-01T07:02:19;96243.41;;;15.18;100.00
29379;BME280;16362;47.202;15.258;2022-09-01T07:04:52;96250.44;;;15.25;100.00
29379;BME280;16362;47.202;15.258;2022-09-01T07:07:18;96248.00;;;15.44;100.00
29379;BME280;16362;47.202;15.258;2022-09-01T07:10:05;96255.06;;;15.85;100.00
29379;BME280;16362;47.202;15.258;2022-09-01T07:12:53;96257.47;;;16.33;100.00
29379;BME280;16362;47.202;15.258;2022-09-01T07:15:39;96257.72;;;16.77;100.00
29379;BME280;16362;47.202;15.258;2022-09-01T07:18:27;96255.75;;;17.05;100.00
29379;BME280;16362;47.202;15.258;2022-09-01T07:20:54;96265.00;;;17.22;100.00
29379;BME280;16362;47.202;15.258;2022-09-01T07:23:41;96271.88;;;17.50;100.00
29379;BME280;16362;47.202;15.258;2022-09-01T07:26:29;96260.91;;;17.77;95.73
29379;BME280;16362;47.202;15.258;2022-09-01T07:28:57;96260.72;;;18.04;86.52
29379;BME280;16362;47.202;15.258;2022-09-01T07:31:30;96259.75;;;18.16;87.63
29379;BME280;16362;47.202;15.258;2022-09-01T07:34:17;96266.84;;;18.36;86.90
29379;BME280;16362;47.202;15.258;2022-09-01T07:37:04;96262.25;;;18.37;82.04
29379;BME280;16362;47.202;15.258;2022-09-01T07:39:51;96263.66;;;18.58;83.05
29379;BME280;16362;47.202;15.258;2022-09-01T07:42:19;96256.69;;;18.68;83.51
29379;BME280;16362;47.202;15.258;2022-09-01T07:45:08;96261.88;;;18.70;79.12
29379;BME280;16362;47.202;15.258;2022-09-01T07:47:52;96262.06;;;18.87;81.39
29379;BME280;16362;47.202;15.258;2022-09-01T07:50:19;96256.03;;;18.92;75.78
29379;BME280;16362;47.202;15.258;2022-09-01T07:53:05;96254.44;;;18.84;75.61
29379;BME280;16362;47.202;15.258;2022-09-01T07:55:34;96259.16;;;19.07;79.78
29379;BME280;16362;47.202;15.258;2022-09-01T07:58:00;96256.31;;;19.32;80.04
29379;BME280;16362;47.202;15.258;2022-09-01T08:00:27;96254.03;;;19.29;73.57
29379;BME280;16362;47.202;15.258;2022-09-01T08:02:57;96263.47;;;19.27;73.61
29379;BME280;16362;47.202;15.258;2022-09-01T08:05:23;96264.66;;;19.31;78.03
29379;BME280;16362;47.202;15.258;2022-09-01T08:07:53;96264.38;;;19.63;79.99
29379;BME280;16362;47.202;15.258;2022-09-01T08:10:20;96263.94;;;19.78;76.78
29379;BME280;16362;47.202;15.258;2022-09-01T08:12:47;96261.53;;;19.88;73.05
29379;BME280;16362;47.202;15.258;2022-09-01T08:15:22;96268.00;;;19.87;67.77
29379;BME280;16362;47.202;15.258;2022-09-01T08:18:07;96267.34;;;19.73;71.44
29379;BME280;16362;47.202;15.258;2022-09-01T08:20:37;96268.00;;;19.87;70.97
29379;BME280;16362;47.202;15.258;2022-09-01T08:23:05;96267.91;;;20.17;76.38
29379;BME280;16362;47.202;15.258;2022-09-01T08:25:35;96263.28;;;20.06;62.87
29379;BME280;16362;47.202;15.258;2022-09-01T08:28:02;96267.75;;;19.89;68.00
29379;BME280;16362;47.202;15.258;2022-09-01T08:30:30;96271.31;;;20.13;68.69
29379;BME280;16362;47.202;15.258;2022-09-01T08:33:00;96270.16;;;20.32;67.29
29379;BME280;16362;47.202;15.258;2022-09-01T08:35:45;96266.84;;;20.30;64.78
29379;BME280;16362;47.202;15.258;2022-09-01T08:38:13;96280.03;;;20.50;64.34
29379;BME280;16362;47.202;15.258;2022-09-01T08:40:41;96284.50;;;20.21;62.67
29379;BME280;16362;47.202;15.258;2022-09-01T08:43:28;96280.03;;;20.39;63.78
29379;BME280;16362;47.202;15.258;2022-09-01T08:46:05;96276.94;;;20.59;59.38
29379;BME280;16362;47.202;15.258;2022-09-01T08:48:45;96288.72;;;20.64;64.42
29379;BME280;16362;47.202;15.258;2022-09-01T08:51:47;96287.06;;;20.63;63.52
29379;BME280;16362;47.202;15.258;2022-09-01T08:54:44;96279.53;;;20.77;61.10
29379;BME280;16362;47.202;15.258;2022-09-01T08:57:16;96279.53;;;20.77;65.58
29379;BME280;16362;47.202;15.258;2022-09-01T08:59:45;96287.81;;;20.71;63.67
29379;BME280;16362;47.202;15.258;2022-09-01T09:05:29;96271.22;;;20.96;66.21
29379;BME280;16362;47.202;15.258;2022-09-01T09:10:42;96278.72;;;20.65;60.84
29379;BME280;16362;47.202;15.258;2022-09-01T09:16:12;96272.94;;;20.61;64.61
29379;BME280;16362;47.202;15.258;2022-09-01T09:19:00;96266.69;;;20.73;62.42
29379;BME280;16362;47.202;15.258;2022-09-01T09:21:35;96256.19;;;20.88;58.06
29379;BME280;16362;47.202;15.258;2022-09-01T09:24:15;96259.09;;;21.27;61.74
29379;BME280;16362;47.202;15.258;2022-09-01T09:26:54;96264.94;;;21.36;61.07
29379;BME280;16362;47.202;15.258;2022-09-01T09:29:21;96259.88;;;21.40;60.52
29379;BME280;16362;47.202;15.258;2022-09-01T09:32:04;96256.69;;;21.14;63.44
29379;BME280;16362;47.202;15.258;2022-09-01T09:34:40;96251.03;;;21.03;60.84
29379;BME280;16362;47.202;15.258;2022-09-01T09:40:11;96254.03;;;21.48;58.76
29379;BME280;16362;47.202;15.258;2022-09-01T09:43:00;96249.09;;;21.45;60.90
29379;BME280;16362;47.202;15.258;2022-09-01T09:45:30;96258.59;;;21.59;63.30
29379;BME280;16362;47.202;15.258;2022-09-01T09:48:28;96260.88;;;21.96;60.54
29379;BME280;16362;47.202;15.258;2022-09-01T09:51:15;96258.53;;;22.22;59.38
29379;BME280;16362;47.202;15.258;2022-09-01T09:53:42;96248.69;;;21.99;52.74
29379;BME280;16362;47.202;15.258;2022-09-01T09:56:21;96244.84;;;21.49;53.69
29379;BME280;16362;47.202;15.258;2022-09-01T09:58:51;96247.84;;;21.64;61.15
29379;BME280;16362;47.202;15.258;2022-09-01T10:04:00;96240.44;;;21.60;58.44
29379;BME280;16362;47.202;15.258;2022-09-01T10:06:41;96246.44;;;21.79;58.24
29379;BME280;16362;47.202;15.258;2022-09-01T10:11:58;96246.72;;;21.48;58.50
29379;BME280;16362;47.202;15.258;2022-09-01T10:14:40;96232.38;;;21.82;52.95
29379;BME280;16362;47.202;15.258;2022-09-01T10:17:29;96231.63;;;21.86;57.73
29379;BME280;16362;47.202;15.258;2022-09-01T10:20:06;96226.94;;;21.99;54.21
29379;BME280;16362;47.202;15.258;2022-09-01T10:22:37;96229.72;;;22.04;51.67
29379;BME280;16362;47.202;15.258;2022-09-01T10:25:06;96241.41;;;21.87;54.46
29379;BME280;16362;47.202;15.258;2022-09-01T10:27:39;96230.22;;;22.01;54.82
29379;BME280;16362;47.202;15.258;2022-09-01T10:30:10;96227.84;;;22.04;54.25
29379;BME280;16362;47.202;15.258;2022-09-01T10:32:57;96227.53;;;21.84;59.05
29379;BME280;16362;47.202;15.258;2022-09-01T10:35:41;96230.53;;;21.53;54.12
29379;BME280;16362;47.202;15.258;2022-09-01T10:38:30;96216.00;;;21.77;56.64
29379;BME280;16362;47.202;15.258;2022-09-01T10:40:58;96227.00;;;21.70;53.15
29379;BME280;16362;47.202;15.258;2022-09-01T10:43:49;96226.88;;;21.60;51.51
29379;BME280;16362;47.202;15.258;2022-09-01T10:51:58;96224.81;;;21.67;51.06
29379;BME280;16362;47.202;15.258;2022-09-01T11:06:08;96228.31;;;22.35;51.41
29379;BME280;16362;47.202;15.258;2022-09-01T11:08:43;96221.34;;;22.06;51.44
29379;BME280;16362;47.202;15.258;2022-09-01T11:13:56;96220.16;;;22.18;54.88
29379;BME280;16362;47.202;15.258;2022-09-01T11:16:31;96234.81;;;22.17;57.32
29379;BME280;16362;47.202;15.258;2022-09-01T11:27:12;96240.84;;;21.68;57.46
29379;BME280;16362;47.202;15.258;2022-09-01T11:29:58;96229.06;;;21.17;54.09
29379;BME280;16362;47.202;15.258;2022-09-01T11:32:33;96239.94;;;21.05;62.89
29379;BME280;16362;47.202;15.258;2022-09-01T11:35:17;96238.25;;;20.87;63.35
29379;BME280;16362;47.202;15.258;2022-09-01T11:37:49;96232.09;;;20.92;66.80
29379;BME280;16362;47.202;15.258;2022-09-01T11:40:25;96242.63;;;20.88;65.95
29379;BME280;16362;47.202;15.258;2022-09-01T11:43:01;96239.13;;;20.52;50.83
29379;BME280;16362;47.202;15.258;2022-09-01T11:45:31;96216.69;;;21.09;49.91
29379;BME280;16362;47.202;15.258;2022-09-01T11:48:07;96224.22;;;21.19;51.86
29379;BME280;16362;47.202;15.258;2022-09-01T11:50:36;96218.97;;;21.29;62.26
29379;BME280;16362;47.202;15.258;2022-09-01T11:53:19;96224.59;;;21.40;59.71
29379;BME280;16362;47.202;15.258;2022-09-01T11:55:50;96227.03;;;21.41;55.32
29379;BME280;16362;47.202;15.258;2022-09-01T12:00:55;96219.84;;;21.18;51.69
29379;BME280;16362;47.202;15.258;2022-09-01T12:03:28;96213.44;;;21.24;57.03
29379;BME280;16362;47.202;15.258;2022-09-01T12:05:58;96218.53;;;21.20;54.89
29379;BME280;16362;47.202;15.258;2022-09-01T12:08:32;96230.59;;;21.13;54.72
29379;BME280;16362;47.202;15.258;2022-09-01T12:13:34;96218.13;;;20.71;59.21
29379;BME280;16362;47.202;15.258;2022-09-01T12:16:05;96225.31;;;20.53;63.41
29379;BME280;16362;47.202;15.258;2022-09-01T12:18:49;96235.72;;;20.33;55.08
29379;BME280;16362;47.202;15.258;2022-09-01T12:21:22;96240.69;;;20.24;53.69
29379;BME280;16362;47.202;15.258;2022-09-01T12:23:50;96229.25;;;20.46;56.37
29379;BME280;16362;47.202;15.258;2022-09-01T12:26:20;96235.22;;;20.60;61.53
29379;BME280;16362;47.202;15.258;2022-09-01T12:28:49;96229.22;;;20.58;65.11
29379;BME280;16362;47.202;15.258;2022-09-01T12:31:22;96227.72;;;20.50;62.84
29379;BME280;16362;47.202;15.258;2022-09-01T12:33:51;96225.78;;;20.62;58.35
29379;BME280;16362;47.202;15.258;2022-09-01T12:38:47;96224.25;;;20.66;58.94
29379;BME280;16362;47.202;15.258;2022-09-01T12:43:49;96225.94;;;20.56;59.54
29379;BME280;16362;47.202;15.258;2022-09-01T12:46:41;96237.97;;;20.36;58.63
29379;BME280;16362;47.202;15.258;2022-09-01T12:49:20;96229.25;;;20.34;58.50
29379;BME280;16362;47.202;15.258;2022-09-01T12:51:48;96238.22;;;20.11;57.43
29379;BME280;16362;47.202;15.258;2022-09-01T12:54:15;96233.16;;;20.26;61.08
29379;BME280;16362;47.202;15.258;2022-09-01T12:56:50;96237.97;;;20.36;58.38
29379;BME280;16362;47.202;15.258;2022-09-01T12:59:23;96224.16;;;20.38;58.44
29379;BME280;16362;47.202;15.258;2022-09-01T13:02:33;96217.44;;;20.40;58.69
29379;BME280;16362;47.202;15.258;2022-09-01T13:05:36;96224.41;;;20.48;56.86
29379;BME280;16362;47.202;15.258;2022-09-01T13:08:11;96239.03;;;20.35;59.78
29379;BME280;16362;47.202;15.258;2022-09-01T13:10:43;96220.75;;;20.42;59.87
29379;BME280;16362;47.202;15.258;2022-09-01T13:13:11;96232.09;;;20.27;58.56
29379;BME280;16362;47.202;15.258;2022-09-01T13:15:41;96234.22;;;20.13;58.34
29379;BME280;16362;47.202;15.258;2022-09-01T13:18:08;96232.09;;;20.15;60.38
29379;BME280;16362;47.202;15.258;2022-09-01T13:20:36;96227.59;;;20.09;59.21
29379;BME280;16362;47.202;15.258;2022-09-01T13:23:03;96235.53;;;20.11;64.08
29379;BME280;16362;47.202;15.258;2022-09-01T13:25:30;96247.53;;;20.15;65.40
29379;BME280;16362;47.202;15.258;2022-09-01T13:27:57;96244.91;;;20.32;63.17
29379;BME280;16362;47.202;15.258;2022-09-01T13:30:25;96239.84;;;20.24;69.46
29379;BME280;16362;47.202;15.258;2022-09-01T13:32:54;96238.94;;;20.18;63.30
29379;BME280;16362;47.202;15.258;2022-09-01T13:35:41;96241.75;;;20.11;65.55
29379;BME280;16362;47.202;15.258;2022-09-01T13:38:08;96244.59;;;20.16;67.90
29379;BME280;16362;47.202;15.258;2022-09-01T13:40:35;96254.56;;;20.16;68.09
29379;BME280;16362;47.202;15.258;2022-09-01T13:43:02;96244.47;;;20.11;66.22
29379;BME280;16362;47.202;15.258;2022-09-01T13:45:30;96243.16;;;20.02;62.73
29379;BME280;16362;47.202;15.258;2022-09-01T13:47:57;96253.63;;;19.98;62.12
29379;BME280;16362;47.202;15.258;2022-09-01T13:50:46;96257.78;;;19.89;68.05
29379;BME280;16362;47.202;15.258;2022-09-01T13:53:35;96246.91;;;20.01;56.44
29379;BME280;16362;47.202;15.258;2022-09-01T13:56:02;96251.28;;;19.90;65.96
29379;BME280;16362;47.202;15.258;2022-09-01T13:58:29;96259.69;;;19.58;59.46
29379;BME280;16362;47.202;15.258;2022-09-01T14:00:56;96250.28;;;19.61;57.66
29379;BME280;16362;47.202;15.258;2022-09-01T14:03:25;96254.13;;;19.53;62.51
29379;BME280;16362;47.202;15.258;2022-09-01T14:05:53;96258.59;;;19.47;61.22
29379;BME280;16362;47.202;15.258;2022-09-01T14:08:20;96255.75;;;19.42;64.25
29379;BME280;16362;47.202;15.258;2022-09-01T14:10:50;96254.69;;;19.43;65.83